sensor_id;sensor_type;location;lat;lon;timestamp;pressure;altitude;pressure_sealevel;temperature;humidity
67397;BME280;57728;50.448;18.824;2023-11-21T00:00:31;97005.34;;;8.55;86.61
67397;BME280;57728;50.448;18.824;2023-11-21T00:02:32;97001.00;;;8.54;86.68
67397;BME280;57728;50.448;18.824;2023-11-21T00:04:34;97026.41;;;8.65;86.65
67397;BME280;57728;50.448;18.824;2023-11-21T00:06:36;97034.53;;;8.65;86.47
67397;BME280;57728;50.448;18.824;2023-11-21T00:08:37;97001.00;;;8.42;86.41
67397;BME280;57728;50.448;18.824;2023-11-21T00:10:38;97034.78;;;8.64;86.54
67397;BME280;57728;50.448;18.824;2023-11-21T00:12:40;96997.22;;;8.43;86.65
67397;BME280;57728;50.448;18.824;2023-11-21T00:14:42;97018.66;;;8.57;86.58
67397;BME280;57728;50.448;18.824;2023-11-21T00:16:44;97017.16;;;8.49;86.51
67397;BME280;57728;50.448;18.824;2023-11-21T00:18:46;97024.81;;;8.52;86.37
67397;BME280;57728;50.448;18.824;2023-11-21T00:20:47;97038.84;;;8.61;86.41
67397;BME280;57728;50.448;18.824;2023-11-21T00:22:48;97039.63;;;8.62;86.62
67397;BME280;57728;50.448;18.824;2023-11-21T00:24:50;97019.16;;;8.42;86.57
67397;BME280;57728;50.448;18.824;2023-11-21T00:26:51;97042.84;;;8.58;86.63
67397;BME280;57728;50.448;18.824;2023-11-21T00:28:54;97053.69;;;8.58;86.48
67397;BME280;57728;50.448;18.824;2023-11-21T00:30:56;97025.06;;;8.39;86.47
67397;BME280;57728;50.448;18.824;2023-11-21T00:32:57;97061.25;;;8.56;86.46
67397;BME280;57728;50.448;18.824;2023-11-21T00:34:58;97054.06;;;8.50;86.48
67397;BME280;57728;50.448;18.824;2023-11-21T00:37:01;96951.56;;;7.95;86.40
67397;BME280;57728;50.448;18.824;2023-11-21T00:39:04;97055.72;;;8.51;86.56
67397;BME280;57728;50.448;18.824;2023-11-21T00:41:06;97039.34;;;8.46;86.52
67397;BME280;57728;50.448;18.824;2023-11-21T00:43:09;97004.38;;;8.21;86.47
67397;BME280;57728;50.448;18.824;2023-11-21T00:45:10;97029.91;;;8.37;86.47
67397;BME280;57728;50.448;18.824;2023-11-21T00:47:12;97056.53;;;8.52;86.38
67397;BME280;57728;50.448;18.824;2023-11-21T00:49:15;97063.88;;;8.51;86.45
67397;BME280;57728;50.448;18.824;2023-11-21T00:51:17;97012.03;;;8.24;86.58
67397;BME280;57728;50.448;18.824;2023-11-21T00:53:18;97032.63;;;8.37;86.63
67397;BME280;57728;50.448;18.824;2023-11-21T00:55:20;97040.28;;;8.40;86.81
67397;BME280;57728;50.448;18.824;2023-11-21T00:57:21;97058.91;;;8.48;86.86
67397;BME280;57728;50.448;18.824;2023-11-21T00:59:23;97052.91;;;8.46;86.92
67397;BME280;57728;50.448;18.824;2023-11-21T01:01:25;97049.47;;;8.39;87.05
67397;BME280;57728;50.448;18.824;2023-11-21T01:03:26;97016.97;;;8.27;87.03
67397;BME280;57728;50.448;18.824;2023-11-21T01:05:27;97058.91;;;8.48;87.21
67397;BME280;57728;50.448;18.824;2023-11-21T01:07:29;97022.63;;;8.25;87.21
67397;BME280;57728;50.448;18.824;2023-11-21T01:09:31;97036.41;;;8.36;87.23
67397;BME280;57728;50.448;18.824;2023-11-21T01:11:32;97052.66;;;8.48;87.24
67397;BME280;57728;50.448;18.824;2023-11-21T01:13:41;97035.09;;;8.38;87.22
67397;BME280;57728;50.448;18.824;2023-11-21T01:15:43;97034.88;;;8.40;87.13
67397;BME280;57728;50.448;18.824;2023-11-21T01:17:44;97036.88;;;8.45;87.33
67397;BME280;57728;50.448;18.824;2023-11-21T01:19:46;97036.50;;;8.41;87.32
67397;BME280;57728;50.448;18.824;2023-11-21T01:21:47;97048.28;;;8.47;87.24
67397;BME280;57728;50.448;18.824;2023-11-21T01:23:48;97024.63;;;8.30;87.06
67397;BME280;57728;50.448;18.824;2023-11-21T01:25:51;97031.00;;;8.36;87.08
67397;BME280;57728;50.448;18.824;2023-11-21T01:27:53;97025.44;;;8.31;87.01
67397;BME280;57728;50.448;18.824;2023-11-21T01:29:54;97057.28;;;8.47;87.18
67397;BME280;57728;50.448;18.824;2023-11-21T01:31:57;97051.59;;;8.49;86.96
67397;BME280;57728;50.448;18.824;2023-11-21T01:33:58;97043.47;;;8.49;86.88
67397;BME280;57728;50.448;18.824;2023-11-21T01:36:00;97048.06;;;8.48;86.71
67397;BME280;57728;50.448;18.824;2023-11-21T01:38:02;97043.56;;;8.42;86.63
67397;BME280;57728;50.448;18.824;2023-11-21T01:40:05;97058.91;;;8.48;86.47
67397;BME280;57728;50.448;18.824;2023-11-21T01:42:10;97032.03;;;8.35;86.51
67397;BME280;57728;50.448;18.824;2023-11-21T01:44:15;97041.59;;;8.37;86.52
67397;BME280;57728;50.448;18.824;2023-11-21T01:46:17;97058.69;;;8.50;86.46
67397;BME280;57728;50.448;18.824;2023-11-21T01:48:20;97055.13;;;8.49;86.30
67397;BME280;57728;50.448;18.824;2023-11-21T01:50:24;97045.22;;;8.43;86.34
67397;BME280;57728;50.448;18.824;2023-11-21T01:52:26;97065.50;;;8.52;86.39
67397;BME280;57728;50.448;18.824;2023-11-21T01:54:30;97033.34;;;8.32;86.19
67397;BME280;57728;50.448;18.824;2023-11-21T01:56:35;97038.63;;;8.39;86.08
67397;BME280;57728;50.448;18.824;2023-11-21T01:58:37;97025.22;;;8.32;86.30
67397;BME280;57728;50.448;18.824;2023-11-21T02:00:38;97059.25;;;8.52;86.04
67397;BME280;57728;50.448;18.824;2023-11-21T02:02:47;97053.72;;;8.47;85.88
67397;BME280;57728;50.448;18.824;2023-11-21T02:04:49;97046.66;;;8.34;85.91
67397;BME280;57728;50.448;18.824;2023-11-21T02:06:50;97066.59;;;8.51;86.02
67397;BME280;57728;50.448;18.824;2023-11-21T02:08:53;97060.66;;;8.42;86.13
67397;BME280;57728;50.448;18.824;2023-11-21T02:10:55;97026.06;;;8.21;85.91
67397;BME280;57728;50.448;18.824;2023-11-21T02:12:56;97066.47;;;8.46;86.30
67397;BME280;57728;50.448;18.824;2023-11-21T02:14:57;97047.25;;;8.36;86.31
67397;BME280;57728;50.448;18.824;2023-11-21T02:17:00;97035.72;;;8.29;86.33
67397;BME280;57728;50.448;18.824;2023-11-21T02:19:07;97075.41;;;8.47;86.40
67397;BME280;57728;50.448;18.824;2023-11-21T02:21:11;97081.69;;;8.47;86.32
67397;BME280;57728;50.448;18.824;2023-11-21T02:23:13;97068.78;;;8.42;86.38
67397;BME280;57728;50.448;18.824;2023-11-21T02:25:15;97072.25;;;8.38;86.42
67397;BME280;57728;50.448;18.824;2023-11-21T02:27:16;97075.44;;;8.35;86.69
67397;BME280;57728;50.448;18.824;2023-11-21T02:29:23;97081.91;;;8.34;86.75
67397;BME280;57728;50.448;18.824;2023-11-21T02:31:28;97039.75;;;8.14;86.94
67397;BME280;57728;50.448;18.824;2023-11-21T02:33:31;97059.09;;;8.18;87.00
67397;BME280;57728;50.448;18.824;2023-11-21T02:35:35;97045.78;;;8.16;87.02
67397;BME280;57728;50.448;18.824;2023-11-21T02:37:36;97052.69;;;8.24;87.17
67397;BME280;57728;50.448;18.824;2023-11-21T02:39:39;97053.88;;;8.28;87.05
67397;BME280;57728;50.448;18.824;2023-11-21T02:41:41;97077.41;;;8.39;87.00
67397;BME280;57728;50.448;18.824;2023-11-21T02:43:43;97073.78;;;8.34;87.02
67397;BME280;57728;50.448;18.824;2023-11-21T02:45:44;97074.47;;;8.41;87.14
67397;BME280;57728;50.448;18.824;2023-11-21T02:47:47;97046.94;;;8.20;86.98
67397;BME280;57728;50.448;18.824;2023-11-21T02:49:51;97059.28;;;8.28;87.03
67397;BME280;57728;50.448;18.824;2023-11-21T02:51:53;97083.00;;;8.45;86.92
67397;BME280;57728;50.448;18.824;2023-11-21T02:53:56;96994.09;;;7.94;86.72
67397;BME280;57728;50.448;18.824;2023-11-21T02:56:03;97086.88;;;8.49;86.64
67397;BME280;57728;50.448;18.824;2023-11-21T02:58:04;97066.31;;;8.41;86.58
67397;BME280;57728;50.448;18.824;2023-11-21T03:00:09;97085.22;;;8.48;86.52
67397;BME280;57728;50.448;18.824;2023-11-21T03:02:15;97086.50;;;8.45;86.46
67397;BME280;57728;50.448;18.824;2023-11-21T03:04:17;97079.44;;;8.44;86.33
67397;BME280;57728;50.448;18.824;2023-11-21T03:06:19;97062.44;;;8.37;86.29
67397;BME280;57728;50.448;18.824;2023-11-21T03:08:21;97088.84;;;8.53;86.02
67397;BME280;57728;50.448;18.824;2023-11-21T03:10:22;97083.09;;;8.50;86.01
67397;BME280;57728;50.448;18.824;2023-11-21T03:12:25;97042.09;;;8.34;86.00
67397;BME280;57728;50.448;18.824;2023-11-21T03:14:26;97086.25;;;8.58;86.02
67397;BME280;57728;50.448;18.824;2023-11-21T03:16:28;97071.66;;;8.48;85.91
67397;BME280;57728;50.448;18.824;2023-11-21T03:18:30;97092.50;;;8.59;85.80
67397;BME280;57728;50.448;18.824;2023-11-21T03:20:32;97087.88;;;8.59;85.75
67397;BME280;57728;50.448;18.824;2023-11-21T03:22:33;97079.31;;;8.51;85.79
67397;BME280;57728;50.448;18.824;2023-11-21T03:24:35;97067.03;;;8.48;85.61
67397;BME280;57728;50.448;18.824;2023-11-21T03:26:36;97084.59;;;8.57;85.65
67397;BME280;57728;50.448;18.824;2023-11-21T03:28:39;97057.38;;;8.40;85.70
67397;BME280;57728;50.448;18.824;2023-11-21T03:30:41;97096.25;;;8.58;85.57
67397;BME280;57728;50.448;18.824;2023-11-21T03:32:42;97069.63;;;8.43;85.67
67397;BME280;57728;50.448;18.824;2023-11-21T03:34:55;97096.00;;;8.59;85.58
67397;BME280;57728;50.448;18.824;2023-11-21T03:36:59;97097.91;;;8.59;85.63
67397;BME280;57728;50.448;18.824;2023-11-21T03:39:00;97076.84;;;8.49;85.61
67397;BME280;57728;50.448;18.824;2023-11-21T03:41:01;97059.41;;;8.33;85.63
67397;BME280;57728;50.448;18.824;2023-11-21T03:43:04;97100.06;;;8.57;85.67
67397;BME280;57728;50.448;18.824;2023-11-21T03:45:06;97097.59;;;8.55;85.57
67397;BME280;57728;50.448;18.824;2023-11-21T03:47:07;97062.34;;;8.32;85.61
67397;BME280;57728;50.448;18.824;2023-11-21T03:49:09;97055.78;;;8.27;85.65
67397;BME280;57728;50.448;18.824;2023-11-21T03:51:11;97097.81;;;8.54;85.67
67397;BME280;57728;50.448;18.824;2023-11-21T03:53:12;97099.69;;;8.53;85.71
67397;BME280;57728;50.448;18.824;2023-11-21T03:55:14;97100.53;;;8.54;85.66
67397;BME280;57728;50.448;18.824;2023-11-21T03:57:17;97078.16;;;8.35;85.62
67397;BME280;57728;50.448;18.824;2023-11-21T03:59:18;97107.28;;;8.51;85.57
67397;BME280;57728;50.448;18.824;2023-11-21T04:01:24;97103.97;;;8.49;85.57
67397;BME280;57728;50.448;18.824;2023-11-21T04:03:25;97109.38;;;8.49;85.65
67397;BME280;57728;50.448;18.824;2023-11-21T04:05:27;97087.47;;;8.39;85.61
67397;BME280;57728;50.448;18.824;2023-11-21T04:07:29;97109.63;;;8.48;85.69
67397;BME280;57728;50.448;18.824;2023-11-21T04:09:31;97107.72;;;8.48;85.67
67397;BME280;57728;50.448;18.824;2023-11-21T04:11:32;97076.97;;;8.31;85.68
67397;BME280;57728;50.448;18.824;2023-11-21T04:13:34;97088.41;;;8.33;85.76
67397;BME280;57728;50.448;18.824;2023-11-21T04:15:35;97087.69;;;8.37;85.76
67397;BME280;57728;50.448;18.824;2023-11-21T04:17:36;97097.25;;;8.40;85.77
67397;BME280;57728;50.448;18.824;2023-11-21T04:19:38;97116.47;;;8.50;85.82
67397;BME280;57728;50.448;18.824;2023-11-21T04:21:40;97100.53;;;8.42;85.60
67397;BME280;57728;50.448;18.824;2023-11-21T04:23:42;97118.13;;;8.51;85.71
67397;BME280;57728;50.448;18.824;2023-11-21T04:25:44;97123.56;;;8.51;85.77
67397;BME280;57728;50.448;18.824;2023-11-21T04:27:46;97123.88;;;8.55;85.82
67397;BME280;57728;50.448;18.824;2023-11-21T04:29:47;97098.78;;;8.48;85.52
67397;BME280;57728;50.448;18.824;2023-11-21T04:31:49;97122.00;;;8.55;85.54
67397;BME280;57728;50.448;18.824;2023-11-21T04:33:50;97060.88;;;8.12;85.46
67397;BME280;57728;50.448;18.824;2023-11-21T04:35:52;97129.91;;;8.57;85.64
67397;BME280;57728;50.448;18.824;2023-11-21T04:37:54;97108.56;;;8.49;85.44
67397;BME280;57728;50.448;18.824;2023-11-21T04:39:55;97085.72;;;8.33;85.40
67397;BME280;57728;50.448;18.824;2023-11-21T04:41:56;97132.13;;;8.60;85.48
67397;BME280;57728;50.448;18.824;2023-11-21T04:43:58;97114.00;;;8.49;85.22
67397;BME280;57728;50.448;18.824;2023-11-21T04:46:01;97128.50;;;8.54;85.23
67397;BME280;57728;50.448;18.824;2023-11-21T04:48:03;97133.44;;;8.57;85.15
67397;BME280;57728;50.448;18.824;2023-11-21T04:50:05;97106.09;;;8.47;85.02
67397;BME280;57728;50.448;18.824;2023-11-21T04:52:07;97122.94;;;8.49;84.98
67397;BME280;57728;50.448;18.824;2023-11-21T04:54:10;97115.16;;;8.41;84.90
67397;BME280;57728;50.448;18.824;2023-11-21T04:56:12;97137.13;;;8.51;84.89
67397;BME280;57728;50.448;18.824;2023-11-21T04:58:13;97148.41;;;8.60;84.75
67397;BME280;57728;50.448;18.824;2023-11-21T05:00:15;97116.22;;;8.40;84.68
67397;BME280;57728;50.448;18.824;2023-11-21T05:02:17;97142.13;;;8.59;84.89
67397;BME280;57728;50.448;18.824;2023-11-21T05:04:20;97136.50;;;8.49;84.75
67397;BME280;57728;50.448;18.824;2023-11-21T05:06:23;97150.28;;;8.59;84.92
67397;BME280;57728;50.448;18.824;2023-11-21T05:08:25;97151.94;;;8.60;85.04
67397;BME280;57728;50.448;18.824;2023-11-21T05:10:27;97148.41;;;8.60;85.00
67397;BME280;57728;50.448;18.824;2023-11-21T05:12:28;97137.69;;;8.53;85.19
67397;BME280;57728;50.448;18.824;2023-11-21T05:14:42;97155.00;;;8.64;85.01
67397;BME280;57728;50.448;18.824;2023-11-21T05:16:44;97146.25;;;8.62;84.98
67397;BME280;57728;50.448;18.824;2023-11-21T05:18:45;97120.72;;;8.46;84.93
67397;BME280;57728;50.448;18.824;2023-11-21T05:20:47;97148.16;;;8.62;84.99
67397;BME280;57728;50.448;18.824;2023-11-21T05:22:48;97149.22;;;8.60;85.26
67397;BME280;57728;50.448;18.824;2023-11-21T05:24:50;97134.63;;;8.50;85.13
67397;BME280;57728;50.448;18.824;2023-11-21T05:26:52;97151.38;;;8.58;85.25
67397;BME280;57728;50.448;18.824;2023-11-21T05:28:53;97113.66;;;8.33;85.22
67397;BME280;57728;50.448;18.824;2023-11-21T05:30:54;97156.78;;;8.58;85.31
67397;BME280;57728;50.448;18.824;2023-11-21T05:32:57;97140.97;;;8.43;85.43
67397;BME280;57728;50.448;18.824;2023-11-21T05:34:58;97158.91;;;8.56;85.47
67397;BME280;57728;50.448;18.824;2023-11-21T05:37:00;97163.63;;;8.61;85.51
67397;BME280;57728;50.448;18.824;2023-11-21T05:39:02;97156.44;;;8.55;85.56
67397;BME280;57728;50.448;18.824;2023-11-21T05:41:04;97127.09;;;8.40;85.57
67397;BME280;57728;50.448;18.824;2023-11-21T05:43:06;97163.63;;;8.61;85.61
67397;BME280;57728;50.448;18.824;2023-11-21T05:45:09;97142.41;;;8.46;85.84
67397;BME280;57728;50.448;18.824;2023-11-21T05:47:11;97163.16;;;8.52;85.92
67397;BME280;57728;50.448;18.824;2023-11-21T05:49:14;97145.69;;;8.48;85.86
67397;BME280;57728;50.448;18.824;2023-11-21T05:51:17;97121.19;;;8.31;85.75
67397;BME280;57728;50.448;18.824;2023-11-21T05:53:18;97143.84;;;8.49;85.68
67397;BME280;57728;50.448;18.824;2023-11-21T05:55:22;97174.94;;;8.58;85.64
67397;BME280;57728;50.448;18.824;2023-11-21T05:57:27;97159.75;;;8.45;85.72
67397;BME280;57728;50.448;18.824;2023-11-21T05:59:28;97148.78;;;8.40;85.97
67397;BME280;57728;50.448;18.824;2023-11-21T06:01:29;97164.47;;;8.50;86.20
67397;BME280;57728;50.448;18.824;2023-11-21T06:03:31;97178.13;;;8.55;86.15
67397;BME280;57728;50.448;18.824;2023-11-21T06:05:32;97157.25;;;8.43;86.28
67397;BME280;57728;50.448;18.824;2023-11-21T06:07:34;97181.22;;;8.58;86.13
67397;BME280;57728;50.448;18.824;2023-11-21T06:09:37;97174.00;;;8.52;86.13
67397;BME280;57728;50.448;18.824;2023-11-21T06:11:38;97184.50;;;8.60;86.15
67397;BME280;57728;50.448;18.824;2023-11-21T06:13:40;97150.88;;;8.38;86.17
67397;BME280;57728;50.448;18.824;2023-11-21T06:15:42;97194.28;;;8.62;86.16
67397;BME280;57728;50.448;18.824;2023-11-21T06:17:43;97154.31;;;8.33;85.97
67397;BME280;57728;50.448;18.824;2023-11-21T06:19:45;97196.41;;;8.59;86.21
67397;BME280;57728;50.448;18.824;2023-11-21T06:21:47;97186.88;;;8.45;86.18
67397;BME280;57728;50.448;18.824;2023-11-21T06:23:48;97181.31;;;8.40;86.34
67397;BME280;57728;50.448;18.824;2023-11-21T06:25:50;97204.22;;;8.56;86.57
67397;BME280;57728;50.448;18.824;2023-11-21T06:27:52;97179.66;;;8.39;86.47
67397;BME280;57728;50.448;18.824;2023-11-21T06:29:54;97208.22;;;8.53;86.56
67397;BME280;57728;50.448;18.824;2023-11-21T06:31:55;97200.56;;;8.50;86.82
67397;BME280;57728;50.448;18.824;2023-11-21T06:33:57;97207.84;;;8.62;86.77
67397;BME280;57728;50.448;18.824;2023-11-21T06:36:00;97216.00;;;8.62;86.67
67397;BME280;57728;50.448;18.824;2023-11-21T06:38:04;97202.78;;;8.53;86.47
67397;BME280;57728;50.448;18.824;2023-11-21T06:40:06;97215.41;;;8.59;86.46
67397;BME280;57728;50.448;18.824;2023-11-21T06:42:08;97203.03;;;8.52;86.57
67397;BME280;57728;50.448;18.824;2023-11-21T06:44:10;97219.19;;;8.58;86.40
67397;BME280;57728;50.448;18.824;2023-11-21T06:46:12;97199.13;;;8.48;86.42
67397;BME280;57728;50.448;18.824;2023-11-21T06:48:17;97211.53;;;8.55;86.42
67397;BME280;57728;50.448;18.824;2023-11-21T06:50:18;97138.66;;;8.00;86.38
67397;BME280;57728;50.448;18.824;2023-11-21T06:52:22;97216.72;;;8.45;86.48
67397;BME280;57728;50.448;18.824;2023-11-21T06:54:24;97223.69;;;8.53;86.61
67397;BME280;57728;50.448;18.824;2023-11-21T06:56:27;97226.16;;;8.54;86.66
67397;BME280;57728;50.448;18.824;2023-11-21T06:58:29;97238.66;;;8.55;86.58
67397;BME280;57728;50.448;18.824;2023-11-21T07:00:30;97237.81;;;8.55;86.54
67397;BME280;57728;50.448;18.824;2023-11-21T07:02:31;97232.38;;;8.55;86.50
67397;BME280;57728;50.448;18.824;2023-11-21T07:04:33;97232.38;;;8.55;86.49
67397;BME280;57728;50.448;18.824;2023-11-21T07:06:35;97214.59;;;8.47;86.51
67397;BME280;57728;50.448;18.824;2023-11-21T07:08:36;97219.56;;;8.50;86.49
67397;BME280;57728;50.448;18.824;2023-11-21T07:10:38;97225.56;;;8.52;86.48
67397;BME280;57728;50.448;18.824;2023-11-21T07:12:39;97231.22;;;8.63;86.43
67397;BME280;57728;50.448;18.824;2023-11-21T07:14:41;97199.13;;;8.36;86.34
67397;BME280;57728;50.448;18.824;2023-11-21T07:16:46;97242.66;;;8.65;86.12
67397;BME280;57728;50.448;18.824;2023-11-21T07:18:48;97245.13;;;8.66;86.06
67397;BME280;57728;50.448;18.824;2023-11-21T07:20:50;97245.59;;;8.63;86.08
67397;BME280;57728;50.448;18.824;2023-11-21T07:22:51;97245.97;;;8.67;86.02
67397;BME280;57728;50.448;18.824;2023-11-21T07:24:53;97224.84;;;8.57;86.13
67397;BME280;57728;50.448;18.824;2023-11-21T07:26:54;97226.84;;;8.62;86.31
67397;BME280;57728;50.448;18.824;2023-11-21T07:28:58;97246.75;;;8.79;86.57
67397;BME280;57728;50.448;18.824;2023-11-21T07:30:59;97246.16;;;8.89;86.61
67397;BME280;57728;50.448;18.824;2023-11-21T07:33:00;97221.13;;;8.87;86.26
67397;BME280;57728;50.448;18.824;2023-11-21T07:35:05;97222.75;;;9.00;86.19
67397;BME280;57728;50.448;18.824;2023-11-21T07:37:08;97235.00;;;9.14;86.18
67397;BME280;57728;50.448;18.824;2023-11-21T07:39:09;97245.38;;;9.46;86.38
67397;BME280;57728;50.448;18.824;2023-11-21T07:41:12;97212.34;;;9.37;84.97
67397;BME280;57728;50.448;18.824;2023-11-21T07:43:16;97200.38;;;9.50;85.17
67397;BME280;57728;50.448;18.824;2023-11-21T07:45:17;97240.09;;;9.85;83.76
67397;BME280;57728;50.448;18.824;2023-11-21T07:47:19;97222.81;;;9.74;83.22
67397;BME280;57728;50.448;18.824;2023-11-21T07:49:20;97234.09;;;9.83;83.30
67397;BME280;57728;50.448;18.824;2023-11-21T07:51:22;97126.88;;;9.11;82.71
67397;BME280;57728;50.448;18.824;2023-11-21T07:53:24;97225.75;;;9.73;82.48
67397;BME280;57728;50.448;18.824;2023-11-21T07:55:27;97209.75;;;9.59;82.03
67397;BME280;57728;50.448;18.824;2023-11-21T07:57:29;97246.16;;;9.75;82.14
67397;BME280;57728;50.448;18.824;2023-11-21T07:59:31;97226.56;;;9.56;82.06
67397;BME280;57728;50.448;18.824;2023-11-21T08:01:32;97242.84;;;9.56;82.18
67397;BME280;57728;50.448;18.824;2023-11-21T08:03:33;97243.09;;;9.55;82.29
67397;BME280;57728;50.448;18.824;2023-11-21T08:05:35;97240.53;;;9.48;82.34
67397;BME280;57728;50.448;18.824;2023-11-21T08:07:37;97211.81;;;9.23;82.22
67397;BME280;57728;50.448;18.824;2023-11-21T08:09:38;97241.28;;;9.32;82.27
67397;BME280;57728;50.448;18.824;2023-11-21T08:11:43;97237.09;;;9.24;82.28
67397;BME280;57728;50.448;18.824;2023-11-21T08:13:44;97261.97;;;9.33;82.35
67397;BME280;57728;50.448;18.824;2023-11-21T08:15:46;97269.44;;;9.25;82.40
67397;BME280;57728;50.448;18.824;2023-11-21T08:17:48;97274.19;;;9.18;82.35
67397;BME280;57728;50.448;18.824;2023-11-21T08:19:49;97242.50;;;8.95;82.29
67397;BME280;57728;50.448;18.824;2023-11-21T08:21:52;97207.63;;;8.63;82.00
67397;BME280;57728;50.448;18.824;2023-11-21T08:23:56;97263.84;;;8.91;81.94
67397;BME280;57728;50.448;18.824;2023-11-21T08:25:57;97243.81;;;8.69;81.92
67397;BME280;57728;50.448;18.824;2023-11-21T08:27:58;97244.31;;;8.66;81.55
67397;BME280;57728;50.448;18.824;2023-11-21T08:30:02;97273.31;;;8.77;81.87
67397;BME280;57728;50.448;18.824;2023-11-21T08:32:04;97246.91;;;8.60;81.95
67397;BME280;57728;50.448;18.824;2023-11-21T08:34:06;97276.59;;;8.79;81.76
67397;BME280;57728;50.448;18.824;2023-11-21T08:36:09;97251.38;;;8.67;81.83
67397;BME280;57728;50.448;18.824;2023-11-21T08:38:12;97280.94;;;8.92;82.32
67397;BME280;57728;50.448;18.824;2023-11-21T08:40:13;97257.59;;;8.91;82.25
67397;BME280;57728;50.448;18.824;2023-11-21T08:42:18;97262.75;;;9.04;82.15
67397;BME280;57728;50.448;18.824;2023-11-21T08:44:20;97256.59;;;9.09;82.25
67397;BME280;57728;50.448;18.824;2023-11-21T08:46:21;97230.53;;;9.08;82.25
67397;BME280;57728;50.448;18.824;2023-11-21T08:48:23;97259.00;;;9.34;82.22
67397;BME280;57728;50.448;18.824;2023-11-21T08:50:24;97277.59;;;9.54;81.97
67397;BME280;57728;50.448;18.824;2023-11-21T08:52:25;97257.88;;;9.47;81.69
67397;BME280;57728;50.448;18.824;2023-11-21T08:54:28;97267.19;;;9.51;81.15
67397;BME280;57728;50.448;18.824;2023-11-21T08:56:29;97266.72;;;9.54;81.41
67397;BME280;57728;50.448;18.824;2023-11-21T08:58:33;97290.78;;;9.62;81.32
67397;BME280;57728;50.448;18.824;2023-11-21T09:00:35;97249.41;;;9.43;80.99
67397;BME280;57728;50.448;18.824;2023-11-21T09:02:40;97286.53;;;9.67;81.26
67397;BME280;57728;50.448;18.824;2023-11-21T09:04:42;97284.47;;;9.74;81.22
67397;BME280;57728;50.448;18.824;2023-11-21T09:06:44;97283.50;;;9.80;80.99
67397;BME280;57728;50.448;18.824;2023-11-21T09:08:45;97279.03;;;9.74;80.23
67397;BME280;57728;50.448;18.824;2023-11-21T09:10:46;97267.91;;;9.75;80.34
67397;BME280;57728;50.448;18.824;2023-11-21T09:12:48;97246.13;;;9.58;80.38
67397;BME280;57728;50.448;18.824;2023-11-21T09:14:50;97282.22;;;9.83;80.24
67397;BME280;57728;50.448;18.824;2023-11-21T09:16:51;97267.09;;;9.75;80.13
67397;BME280;57728;50.448;18.824;2023-11-21T09:18:54;97231.31;;;9.49;79.64
67397;BME280;57728;50.448;18.824;2023-11-21T09:20:55;97279.41;;;9.66;79.68
67397;BME280;57728;50.448;18.824;2023-11-21T09:22:56;97280.41;;;9.59;79.94
67397;BME280;57728;50.448;18.824;2023-11-21T09:24:59;97270.91;;;9.45;79.93
67397;BME280;57728;50.448;18.824;2023-11-21T09:27:00;97280.53;;;9.53;80.20
67397;BME280;57728;50.448;18.824;2023-11-21T09:29:01;97282.25;;;9.42;79.96
67397;BME280;57728;50.448;18.824;2023-11-21T09:31:04;97278.44;;;9.43;80.20
67397;BME280;57728;50.448;18.824;2023-11-21T09:33:06;97261.88;;;9.27;80.40
67397;BME280;57728;50.448;18.824;2023-11-21T09:35:07;97281.09;;;9.38;80.17
67397;BME280;57728;50.448;18.824;2023-11-21T09:37:10;97278.00;;;9.34;80.05
67397;BME280;57728;50.448;18.824;2023-11-21T09:39:11;97287.47;;;9.32;80.17
67397;BME280;57728;50.448;18.824;2023-11-21T09:41:26;97276.03;;;9.29;80.00
67397;BME280;57728;50.448;18.824;2023-11-21T09:43:41;97286.09;;;9.29;80.39
67397;BME280;57728;50.448;18.824;2023-11-21T09:45:51;97252.75;;;9.05;80.18
67397;BME280;57728;50.448;18.824;2023-11-21T09:47:57;97278.88;;;9.23;80.10
67397;BME280;57728;50.448;18.824;2023-11-21T09:50:01;97258.50;;;9.08;80.46
67397;BME280;57728;50.448;18.824;2023-11-21T09:52:03;97237.06;;;8.95;80.59
67397;BME280;57728;50.448;18.824;2023-11-21T09:54:10;97283.75;;;9.21;80.55
67397;BME280;57728;50.448;18.824;2023-11-21T09:56:13;97283.38;;;9.17;80.41
67397;BME280;57728;50.448;18.824;2023-11-21T09:58:20;97267.38;;;9.04;80.29
67397;BME280;57728;50.448;18.824;2023-11-21T10:00:24;97248.28;;;8.87;80.12
67397;BME280;57728;50.448;18.824;2023-11-21T10:02:27;97269.28;;;8.91;80.04
67397;BME280;57728;50.448;18.824;2023-11-21T10:04:31;97262.94;;;8.74;80.27
67397;BME280;57728;50.448;18.824;2023-11-21T10:06:33;97275.34;;;8.70;80.30
67397;BME280;57728;50.448;18.824;2023-11-21T10:08:36;97296.44;;;8.80;80.76
67397;BME280;57728;50.448;18.824;2023-11-21T10:10:45;97269.44;;;8.61;80.55
67397;BME280;57728;50.448;18.824;2023-11-21T10:12:51;97274.88;;;8.61;80.60
67397;BME280;57728;50.448;18.824;2023-11-21T10:14:58;97276.66;;;8.55;80.72
67397;BME280;57728;50.448;18.824;2023-11-21T10:17:02;97268.50;;;8.55;81.12
67397;BME280;57728;50.448;18.824;2023-11-21T10:19:04;97254.56;;;8.40;81.51
67397;BME280;57728;50.448;18.824;2023-11-21T10:21:09;97287.59;;;8.72;81.65
67397;BME280;57728;50.448;18.824;2023-11-21T10:23:10;97268.25;;;8.69;81.80
67397;BME280;57728;50.448;18.824;2023-11-21T10:25:13;97288.75;;;8.88;81.33
67397;BME280;57728;50.448;18.824;2023-11-21T10:27:16;97290.75;;;8.93;81.21
67397;BME280;57728;50.448;18.824;2023-11-21T10:29:17;97290.63;;;9.00;81.43
67397;BME280;57728;50.448;18.824;2023-11-21T10:31:19;97291.91;;;9.09;81.51
67397;BME280;57728;50.448;18.824;2023-11-21T10:33:27;97288.13;;;9.10;81.28
67397;BME280;57728;50.448;18.824;2023-11-21T10:35:47;97286.09;;;9.17;81.72
67397;BME280;57728;50.448;18.824;2023-11-21T10:38:00;97285.72;;;9.25;81.71
67397;BME280;57728;50.448;18.824;2023-11-21T10:40:02;97285.72;;;9.25;81.10
67397;BME280;57728;50.448;18.824;2023-11-21T10:42:08;97273.97;;;9.08;80.79
67397;BME280;57728;50.448;18.824;2023-11-21T10:44:11;97236.00;;;8.84;80.96
67397;BME280;57728;50.448;18.824;2023-11-21T10:46:16;97289.78;;;9.11;80.99
67397;BME280;57728;50.448;18.824;2023-11-21T10:48:17;97288.13;;;9.10;81.24